createdAt,value
2018-09-20T00:02:15.821Z,91.96
2018-09-20T00:04:43.004Z,93.59
2018-09-20T00:07:10.177Z,93.03
2018-09-20T00:09:37.379Z,91.58
2018-09-20T00:12:04.563Z,90.53
2018-09-20T00:14:31.749Z,91.04
2018-09-20T00:17:36.965Z,90.91
2018-09-20T00:20:05.220Z,91.40
2018-09-20T00:22:32.350Z,90.71
2018-09-20T00:24:59.551Z,91.04
2018-09-20T00:27:26.728Z,90.45
2018-09-20T00:29:53.929Z,90.80
2018-09-20T00:32:21.096Z,90.49
2018-09-20T00:34:48.264Z,93.18
2018-09-20T00:37:15.483Z,92.92
2018-09-20T00:39:42.642Z,91.45
2018-09-20T00:42:09.837Z,91.56
2018-09-20T00:44:37.033Z,92.42
2018-09-20T00:47:04.328Z,93.00
2018-09-20T00:49:31.531Z,94.22
2018-09-20T00:51:58.685Z,92.72
2018-09-20T00:54:25.888Z,94.46
2018-09-20T00:56:53.040Z,93.42
2018-09-20T00:59:20.224Z,92.48
2018-09-20T01:01:47.430Z,91.89
2018-09-20T01:04:14.641Z,91.68
2018-09-20T01:06:41.821Z,91.16
2018-09-20T01:09:10.239Z,91.49
2018-09-20T01:11:37.767Z,91.42
2018-09-20T01:14:05.135Z,91.31
2018-09-20T01:16:32.339Z,90.64
2018-09-20T01:18:59.777Z,91.47
2018-09-20T01:21:26.957Z,92.96
2018-09-20T01:23:54.154Z,92.21
2018-09-20T01:26:21.355Z,92.78
2018-09-20T01:28:48.557Z,91.92
2018-09-20T01:31:15.769Z,91.65
2018-09-20T01:33:42.896Z,91.43
2018-09-20T01:36:10.035Z,91.35
2018-09-20T01:38:37.176Z,91.09
2018-09-20T01:41:04.359Z,90.90
2018-09-20T01:43:31.909Z,90.17
2018-09-20T01:45:59.104Z,90.54
2018-09-20T01:48:26.298Z,90.71
2018-09-20T01:50:53.524Z,90.28
2018-09-20T01:53:20.691Z,90.13
2018-09-20T01:55:47.880Z,91.38
2018-09-20T01:58:15.101Z,92.94
2018-09-20T02:00:42.257Z,92.85
2018-09-20T02:03:09.418Z,92.72
2018-09-20T02:05:36.660Z,92.02
2018-09-20T02:08:03.832Z,91.33
2018-09-20T02:10:31.012Z,91.12
2018-09-20T02:12:58.273Z,90.82
2018-09-20T02:15:25.492Z,91.71
2018-09-20T02:17:52.701Z,92.07
2018-09-20T02:20:19.974Z,90.83
2018-09-20T02:22:47.148Z,90.83
2018-09-20T02:25:14.292Z,90.87
2018-09-20T02:27:41.469Z,91.62
2018-09-20T02:30:08.616Z,91.29
2018-09-20T02:32:35.819Z,91.51
2018-09-20T02:35:04.015Z,91.88
2018-09-20T02:37:31.194Z,91.92
2018-09-20T02:39:58.361Z,91.05
2018-09-20T02:42:25.532Z,91.07
2018-09-20T02:44:52.702Z,91.02
2018-09-20T02:47:19.936Z,92.29
2018-09-20T02:49:47.147Z,91.58
2018-09-20T02:52:14.326Z,91.98
2018-09-20T02:54:41.522Z,91.95
2018-09-20T02:57:08.748Z,92.17
2018-09-20T02:59:35.869Z,92.06
2018-09-20T03:02:03.049Z,91.15
2018-09-20T03:04:30.221Z,91.46
2018-09-20T03:06:57.353Z,90.47
2018-09-20T03:09:24.573Z,91.65
2018-09-20T03:11:51.812Z,92.51
2018-09-20T03:14:18.967Z,91.62
2018-09-20T03:16:46.152Z,90.92
2018-09-20T03:19:13.372Z,90.35
2018-09-20T03:21:40.544Z,91.07
2018-09-20T03:24:07.717Z,90.77
2018-09-20T03:26:34.962Z,90.15
2018-09-20T03:29:02.136Z,90.11
2018-09-20T03:31:29.317Z,89.75
2018-09-20T03:33:56.497Z,91.28
2018-09-20T03:36:23.657Z,91.32
2018-09-20T03:38:50.844Z,92.64
2018-09-20T03:41:18.008Z,92.88
2018-09-20T03:43:45.201Z,91.60
2018-09-20T03:46:12.496Z,94.05
2018-09-20T03:48:39.692Z,93.70
2018-09-20T03:51:06.950Z,93.31
2018-09-20T03:53:34.074Z,92.78
2018-09-20T03:56:01.235Z,91.96
2018-09-20T03:58:28.413Z,91.68
2018-09-20T04:00:55.639Z,91.77
2018-09-20T04:03:22.818Z,92.81
2018-09-20T04:05:50.025Z,93.25
2018-09-20T04:08:17.324Z,93.17
2018-09-20T04:10:44.468Z,94.17
2018-09-20T04:13:11.676Z,94.92
2018-09-20T04:15:38.927Z,95.47
2018-09-20T04:18:06.214Z,94.59
2018-09-20T04:20:33.382Z,95.38
2018-09-20T04:23:00.539Z,96.29
2018-09-20T04:25:27.691Z,94.56
2018-09-20T04:27:54.889Z,94.43
2018-09-20T04:30:22.077Z,94.20
2018-09-20T04:32:49.298Z,93.11
2018-09-20T04:35:16.471Z,92.80
2018-09-20T04:37:43.624Z,93.92
2018-09-20T04:40:10.792Z,94.38
2018-09-20T04:42:38.045Z,94.95
2018-09-20T04:45:05.786Z,93.81
2018-09-20T04:47:32.937Z,93.42
2018-09-20T04:50:00.155Z,91.81
2018-09-20T04:52:27.328Z,92.01
2018-09-20T04:54:54.490Z,91.18
2018-09-20T04:57:21.648Z,92.30
2018-09-20T04:59:48.846Z,92.46
2018-09-20T05:02:16.041Z,91.44
2018-09-20T05:04:43.193Z,92.24
2018-09-20T05:07:10.376Z,93.31
2018-09-20T05:09:37.635Z,94.29
2018-09-20T05:12:04.761Z,93.05
2018-09-20T05:14:31.952Z,92.90
2018-09-20T05:16:59.116Z,91.85
2018-09-20T05:19:26.305Z,92.54
2018-09-20T05:21:53.469Z,93.16
2018-09-20T05:24:20.635Z,93.44
2018-09-20T05:26:47.796Z,94.76
2018-09-20T05:29:15.203Z,95.06
2018-09-20T05:31:42.549Z,94.66
2018-09-20T05:34:09.716Z,94.17
2018-09-20T05:36:36.847Z,93.72
2018-09-20T05:39:06.392Z,93.41
2018-09-20T05:41:33.613Z,92.90
2018-09-20T05:44:00.841Z,93.31
2018-09-20T05:46:28.000Z,92.84
2018-09-20T05:48:55.183Z,92.41
2018-09-20T05:51:22.325Z,91.83
2018-09-20T05:53:49.539Z,94.82
2018-09-20T05:56:16.692Z,94.86
2018-09-20T05:58:43.870Z,93.19
2018-09-20T06:01:11.040Z,93.44
2018-09-20T06:03:38.200Z,93.99
2018-09-20T06:06:05.404Z,94.43
2018-09-20T06:08:32.564Z,93.61
2018-09-20T06:10:59.738Z,94.14
2018-09-20T06:13:26.901Z,94.68
2018-09-20T06:15:54.079Z,94.60
2018-09-20T06:18:21.308Z,94.47
2018-09-20T06:20:48.419Z,94.27
2018-09-20T06:23:15.672Z,95.30
2018-09-20T06:25:43.022Z,94.26
2018-09-20T06:28:10.228Z,93.44
2018-09-20T06:30:37.484Z,94.14
2018-09-20T06:33:04.706Z,93.78
2018-09-20T06:35:32.644Z,93.94
2018-09-20T06:37:59.787Z,94.10
2018-09-20T06:40:26.906Z,94.42
2018-09-20T06:42:54.055Z,93.78
2018-09-20T06:45:21.198Z,95.92
2018-09-20T06:47:48.372Z,95.47
2018-09-20T06:50:16.288Z,94.65
2018-09-20T06:52:43.412Z,93.67
2018-09-20T06:55:10.797Z,92.90
2018-09-20T06:57:37.980Z,92.02
2018-09-20T07:00:06.664Z,91.51
2018-09-20T07:02:34.301Z,90.91
2018-09-20T07:05:01.653Z,90.79
2018-09-20T07:07:28.990Z,89.94
2018-09-20T07:09:56.180Z,90.83
2018-09-20T07:12:23.360Z,90.70
2018-09-20T07:14:50.520Z,89.69
2018-09-20T07:17:17.693Z,89.91
2018-09-20T07:19:44.916Z,87.90
2018-09-20T07:22:12.116Z,87.07
2018-09-20T07:24:39.372Z,86.59
2018-09-20T07:27:06.656Z,86.27
2018-09-20T07:29:33.808Z,85.50
2018-09-20T07:32:01.244Z,84.21
2018-09-20T07:34:28.436Z,84.97
2018-09-20T07:36:55.571Z,83.83
2018-09-20T07:39:22.741Z,84.42
2018-09-20T07:41:49.892Z,83.54
2018-09-20T07:44:17.120Z,83.19
2018-09-20T07:46:44.276Z,83.40
2018-09-20T07:49:11.460Z,83.23
2018-09-20T07:51:38.619Z,83.94
2018-09-20T07:54:05.809Z,82.80
2018-09-20T07:56:33.040Z,83.08
2018-09-20T07:59:00.173Z,81.73
2018-09-20T08:01:27.412Z,81.65
2018-09-20T08:03:54.569Z,83.48
2018-09-20T08:06:21.870Z,82.73
2018-09-20T08:08:49.359Z,82.35
2018-09-20T08:11:16.544Z,82.73
2018-09-20T08:13:44.057Z,82.11
2018-09-20T08:16:11.258Z,81.64
2018-09-20T08:18:38.464Z,81.01
2018-09-20T08:21:05.750Z,80.20
2018-09-20T08:23:32.949Z,79.20
2018-09-20T08:26:00.188Z,80.54
2018-09-20T08:28:34.172Z,79.18
2018-09-20T08:31:01.335Z,78.50
2018-09-20T08:33:28.616Z,78.31
2018-09-20T08:35:55.793Z,77.68
2018-09-20T08:38:22.912Z,76.86
2018-09-20T08:40:50.089Z,76.44
2018-09-20T08:43:17.248Z,76.39
2018-09-20T08:45:44.434Z,76.07
2018-09-20T08:48:11.608Z,75.65
2018-09-20T08:50:38.775Z,75.74
2018-09-20T08:53:06.149Z,75.94
2018-09-20T08:55:33.329Z,75.22
2018-09-20T08:58:00.532Z,74.38
2018-09-20T09:00:27.701Z,73.43
2018-09-20T09:02:54.957Z,72.42
2018-09-20T09:05:22.187Z,72.29
2018-09-20T09:07:49.368Z,71.07
2018-09-20T09:10:16.532Z,71.46
2018-09-20T09:12:43.664Z,70.62
2018-09-20T09:15:11.028Z,69.35
2018-09-20T09:17:38.232Z,70.21
2018-09-20T09:20:05.647Z,70.95
2018-09-20T09:22:32.837Z,69.14
2018-09-20T09:25:00.020Z,67.80
2018-09-20T09:27:27.271Z,66.75
2018-09-20T09:29:54.462Z,67.07
2018-09-20T09:32:21.693Z,66.51
2018-09-20T09:34:48.905Z,67.23
2018-09-20T09:37:16.496Z,66.18
2018-09-20T09:39:43.646Z,65.02
2018-09-20T09:42:10.878Z,65.11
2018-09-20T09:44:38.049Z,66.50
2018-09-20T09:47:05.177Z,65.43
2018-09-20T09:49:32.380Z,64.86
2018-09-20T09:51:59.552Z,64.61
2018-09-20T09:54:26.793Z,64.52
2018-09-20T09:56:53.978Z,64.86
2018-09-20T09:59:21.168Z,63.58
2018-09-20T10:01:48.285Z,65.42
2018-09-20T10:04:15.480Z,63.97
2018-09-20T10:06:42.652Z,63.83
2018-09-20T10:09:10.741Z,62.36
2018-09-20T10:11:37.981Z,61.47
2018-09-20T10:14:05.176Z,61.09
2018-09-20T10:16:32.573Z,59.21
2018-09-20T10:18:59.795Z,59.97
2018-09-20T10:21:26.956Z,60.30
2018-09-20T10:23:54.211Z,61.39
2018-09-20T10:26:21.356Z,59.40
2018-09-20T10:28:48.564Z,59.46
2018-09-20T10:31:15.743Z,58.62
2018-09-20T10:33:43.034Z,57.03
2018-09-20T10:36:10.287Z,58.61
2018-09-20T10:38:37.441Z,57.47
2018-09-20T10:41:04.661Z,56.82
2018-09-20T10:43:31.819Z,57.32
2018-09-20T10:45:58.988Z,56.95
2018-09-20T10:48:26.183Z,55.75
2018-09-20T10:50:53.356Z,54.97
2018-09-20T10:53:20.529Z,54.96
2018-09-20T10:55:47.779Z,56.46
2018-09-20T10:58:14.899Z,55.63
2018-09-20T11:00:42.091Z,55.90
2018-09-20T11:03:09.441Z,55.22
2018-09-20T11:05:36.581Z,54.57
2018-09-20T11:08:03.780Z,55.61
2018-09-20T11:10:31.002Z,52.87
2018-09-20T11:12:58.124Z,52.56
2018-09-20T11:15:25.352Z,53.44
2018-09-20T11:17:53.707Z,51.70
2018-09-20T11:20:20.949Z,51.57
2018-09-20T11:22:48.064Z,51.36
2018-09-20T11:25:15.228Z,51.96
2018-09-20T11:27:42.847Z,50.55
2018-09-20T11:30:10.037Z,50.91
2018-09-20T11:32:37.216Z,51.50
2018-09-20T11:35:04.687Z,50.87
2018-09-20T11:37:31.891Z,49.29
2018-09-20T11:39:59.060Z,49.74
2018-09-20T11:42:26.232Z,49.44
2018-09-20T11:44:53.388Z,49.00
2018-09-20T11:47:20.557Z,48.08
2018-09-20T11:49:47.717Z,48.22
2018-09-20T11:52:14.827Z,48.71
2018-09-20T11:54:41.954Z,47.97
2018-09-20T11:57:09.219Z,47.27
2018-09-20T11:59:36.499Z,47.59
2018-09-20T12:02:03.824Z,44.83
2018-09-20T12:04:30.941Z,45.60
2018-09-20T12:06:58.133Z,45.43
2018-09-20T12:09:25.301Z,46.93
2018-09-20T12:11:52.469Z,46.95
2018-09-20T12:14:19.723Z,46.47
2018-09-20T12:16:46.896Z,46.32
2018-09-20T12:19:14.053Z,46.15
2018-09-20T12:21:41.218Z,46.42
2018-09-20T12:24:08.368Z,48.12
2018-09-20T12:26:35.564Z,46.55
2018-09-20T12:29:02.759Z,46.29
2018-09-20T12:31:30.055Z,45.84
2018-09-20T12:33:57.301Z,45.67
2018-09-20T12:36:24.510Z,44.80
2018-09-20T12:38:51.709Z,45.06
2018-09-20T12:41:18.891Z,45.72
2018-09-20T12:43:46.029Z,44.22
2018-09-20T12:46:13.204Z,42.85
2018-09-20T12:48:40.383Z,39.65
2018-09-20T12:51:08.044Z,41.19
2018-09-20T12:53:35.205Z,40.68
2018-09-20T12:56:02.392Z,41.09
2018-09-20T12:58:37.245Z,40.31
2018-09-20T13:01:04.481Z,40.79
2018-09-20T13:03:31.644Z,39.92
2018-09-20T13:05:58.863Z,40.59
2018-09-20T13:08:26.064Z,38.18
2018-09-20T13:10:53.271Z,37.90
2018-09-20T13:13:20.529Z,37.27
2018-09-20T13:15:48.108Z,36.15
2018-09-20T13:18:15.314Z,36.31
2018-09-20T13:20:42.528Z,37.60
2018-09-20T13:23:10.276Z,39.37
2018-09-20T13:25:37.739Z,38.71
2018-09-20T13:28:04.925Z,38.72
2018-09-20T13:30:32.165Z,38.10
2018-09-20T13:32:59.431Z,36.66
2018-09-20T13:35:26.652Z,37.16
2018-09-20T13:37:53.868Z,36.72
2018-09-20T13:40:21.060Z,36.65
2018-09-20T13:42:48.271Z,36.38
2018-09-20T13:45:15.467Z,35.84
2018-09-20T13:47:42.614Z,35.90
2018-09-20T13:50:09.830Z,36.81
2018-09-20T13:52:36.980Z,35.78
2018-09-20T13:55:04.592Z,34.37
2018-09-20T13:57:31.723Z,34.58
2018-09-20T13:59:59.020Z,34.41
2018-09-20T14:02:26.159Z,34.85
2018-09-20T14:04:53.452Z,34.22
2018-09-20T14:07:20.619Z,33.77
2018-09-20T14:09:47.811Z,34.73
2018-09-20T14:12:15.000Z,33.45
2018-09-20T14:14:42.163Z,34.46
2018-09-20T14:17:09.327Z,32.34
2018-09-20T14:19:36.493Z,32.40
2018-09-20T14:22:03.669Z,33.00
2018-09-20T14:24:30.847Z,33.22
2018-09-20T14:26:58.042Z,33.09
2018-09-20T14:29:25.238Z,33.04
2018-09-20T14:31:52.429Z,34.86
2018-09-20T14:34:19.605Z,33.50
2018-09-20T14:36:46.876Z,33.68
2018-09-20T14:39:14.084Z,33.21
2018-09-20T14:41:41.315Z,33.02
2018-09-20T14:44:08.536Z,33.77
2018-09-20T14:46:35.745Z,33.10
2018-09-20T14:49:03.032Z,34.10
2018-09-20T14:51:30.565Z,34.11
2018-09-20T14:53:57.782Z,34.21
2018-09-20T14:56:25.094Z,35.38
2018-09-20T14:58:52.282Z,34.72
2018-09-20T15:01:19.508Z,33.85
2018-09-20T15:03:46.690Z,34.00
2018-09-20T15:06:13.906Z,34.34
2018-09-20T15:08:41.133Z,32.97
2018-09-20T15:11:08.336Z,33.25
2018-09-20T15:13:35.628Z,33.85
2018-09-20T15:16:02.840Z,33.76
2018-09-20T15:18:30.070Z,33.96
2018-09-20T15:20:57.288Z,35.11
2018-09-20T15:23:24.508Z,34.20
2018-09-20T15:25:51.746Z,33.88
2018-09-20T15:28:18.988Z,33.62
2018-09-20T15:30:46.290Z,33.93
2018-09-20T15:33:13.585Z,35.77
2018-09-20T15:35:40.841Z,36.15
2018-09-20T15:38:13.302Z,37.09
2018-09-20T15:40:40.548Z,37.82
2018-09-20T15:43:08.068Z,38.77
2018-09-20T15:45:35.275Z,38.51
2018-09-20T15:48:02.527Z,39.80
2018-09-20T15:50:29.752Z,39.78
2018-09-20T15:52:56.984Z,39.55
2018-09-20T15:55:24.310Z,39.59
2018-09-20T15:57:51.573Z,41.01
2018-09-20T16:00:18.820Z,40.81
2018-09-20T16:02:46.037Z,41.77
2018-09-20T16:05:13.253Z,41.72
2018-09-20T16:07:40.457Z,41.72
2018-09-20T16:10:07.738Z,42.03
2018-09-20T16:12:34.960Z,41.88
2018-09-20T16:15:02.320Z,42.04
2018-09-20T16:17:29.580Z,42.54
2018-09-20T16:19:56.862Z,41.93
2018-09-20T16:22:24.110Z,41.89
2018-09-20T16:24:51.385Z,42.27
2018-09-20T16:27:18.677Z,43.09
2018-09-20T16:30:08.041Z,42.73
2018-09-20T16:33:53.708Z,43.24
2018-09-20T16:36:34.442Z,44.11
2018-09-20T16:39:09.061Z,43.99
2018-09-20T16:41:39.629Z,45.17
2018-09-20T16:44:06.932Z,44.51
2018-09-20T16:46:34.157Z,44.84
2018-09-20T16:49:01.385Z,45.03
2018-09-20T16:51:28.561Z,45.25
2018-09-20T16:53:55.877Z,45.21
2018-09-20T16:56:23.149Z,46.04
2018-09-20T16:58:51.812Z,46.68
2018-09-20T17:01:19.932Z,47.11
2018-09-20T17:03:47.498Z,47.18
2018-09-20T17:06:14.856Z,47.47
2018-09-20T17:08:42.105Z,48.36
2018-09-20T17:11:09.348Z,48.82
2018-09-20T17:13:36.605Z,48.31
2018-09-20T17:16:03.927Z,49.85
2018-09-20T17:18:31.158Z,50.10
2018-09-20T17:20:58.404Z,50.59
2018-09-20T17:23:25.658Z,51.60
2018-09-20T17:25:52.880Z,52.63
2018-09-20T17:28:20.181Z,54.62
2018-09-20T17:30:47.394Z,56.20
2018-09-20T17:33:14.620Z,55.74
2018-09-20T17:35:42.264Z,57.11
2018-09-20T17:38:10.263Z,57.05
2018-09-20T17:40:38.936Z,57.73
2018-09-20T17:43:08.834Z,57.98
2018-09-20T17:45:36.066Z,58.82
2018-09-20T17:48:03.344Z,58.66
2018-09-20T17:50:30.614Z,59.85
2018-09-20T17:52:58.308Z,59.98
2018-09-20T17:55:26.114Z,60.83
2018-09-20T17:57:53.832Z,59.53
2018-09-20T18:00:23.159Z,60.37
2018-09-20T18:02:50.916Z,61.11
2018-09-20T18:05:18.851Z,62.20
2018-09-20T18:07:46.093Z,61.62
2018-09-20T18:10:15.155Z,62.16
2018-09-20T18:12:42.813Z,62.03
2018-09-20T18:15:10.284Z,63.10
2018-09-20T18:17:37.541Z,62.54
2018-09-20T18:20:04.909Z,62.83
2018-09-20T18:22:32.151Z,62.67
2018-09-20T18:24:59.421Z,63.75
2018-09-20T18:27:27.125Z,64.28
2018-09-20T18:29:54.377Z,63.99
2018-09-20T18:32:21.615Z,64.05
2018-09-20T18:34:48.909Z,64.12
2018-09-20T18:37:16.362Z,63.92
2018-09-20T18:39:43.635Z,65.11
2018-09-20T18:42:10.925Z,64.08
2018-09-20T18:44:38.232Z,65.49
2018-09-20T18:47:05.845Z,65.82
2018-09-20T18:49:34.324Z,65.61
2018-09-20T18:52:01.599Z,66.42
2018-09-20T18:54:28.873Z,66.02
2018-09-20T18:56:56.146Z,67.15
2018-09-20T18:59:23.501Z,67.24
2018-09-20T19:01:50.708Z,67.39
2018-09-20T19:04:17.944Z,68.32
2018-09-20T19:06:45.137Z,67.96
2018-09-20T19:09:12.404Z,69.30
2018-09-20T19:11:39.645Z,68.09
2018-09-20T19:14:07.190Z,69.15
2018-09-20T19:16:34.806Z,68.61
2018-09-20T19:19:03.590Z,69.07
2018-09-20T19:21:32.173Z,70.56
2018-09-20T19:24:01.232Z,71.59
2018-09-20T19:26:28.747Z,71.26
2018-09-20T19:28:57.408Z,71.55
2018-09-20T19:31:26.571Z,71.88
2018-09-20T19:33:53.833Z,72.29
2018-09-20T19:36:21.181Z,72.76
2018-09-20T19:38:48.492Z,75.01
2018-09-20T19:41:15.707Z,74.33
2018-09-20T19:43:42.988Z,74.68
2018-09-20T19:46:10.257Z,75.43
2018-09-20T19:48:37.506Z,75.01
2018-09-20T19:51:04.816Z,74.04
2018-09-20T19:53:32.245Z,73.90
2018-09-20T19:55:59.527Z,78.04
2018-09-20T19:58:26.827Z,78.51
2018-09-20T20:00:55.612Z,77.87
2018-09-20T20:03:22.816Z,77.52
2018-09-20T20:05:50.040Z,77.45
2018-09-20T20:08:17.220Z,76.92
2018-09-20T20:10:44.679Z,76.18
2018-09-20T20:13:11.959Z,76.91
2018-09-20T20:15:39.171Z,77.71
2018-09-20T20:18:06.383Z,77.78
2018-09-20T20:20:33.710Z,79.03
2018-09-20T20:23:00.913Z,78.01
2018-09-20T20:25:28.125Z,78.28
2018-09-20T20:27:55.304Z,77.28
2018-09-20T20:30:22.641Z,80.93
2018-09-20T20:32:49.887Z,79.97
2018-09-20T20:35:17.189Z,78.95
2018-09-20T20:37:44.445Z,79.80
2018-09-20T20:40:11.648Z,79.07
2018-09-20T20:42:39.064Z,78.80
2018-09-20T20:45:06.477Z,78.60
2018-09-20T20:47:33.730Z,78.66
2018-09-20T20:50:01.004Z,78.93
2018-09-20T20:52:28.292Z,79.78
2018-09-20T20:54:55.694Z,79.17
2018-09-20T20:57:34.816Z,79.30
2018-09-20T21:00:02.361Z,81.95
2018-09-20T21:02:29.607Z,80.87
2018-09-20T21:04:56.927Z,81.04
2018-09-20T21:07:24.171Z,81.09
2018-09-20T21:09:51.374Z,81.69
2018-09-20T21:12:18.677Z,82.22
2018-09-20T21:14:45.910Z,81.73
2018-09-20T21:17:13.244Z,83.30
2018-09-20T21:19:40.566Z,84.28
2018-09-20T21:22:07.761Z,83.95
2018-09-20T21:24:34.996Z,85.46
2018-09-20T21:27:02.257Z,85.17
2018-09-20T21:29:29.515Z,84.48
2018-09-20T21:31:56.831Z,83.68
2018-09-20T21:34:24.096Z,84.13
2018-09-20T21:36:51.346Z,84.67
2018-09-20T21:39:18.577Z,84.89
2018-09-20T21:41:45.752Z,85.72
2018-09-20T21:44:13.179Z,84.83
2018-09-20T21:46:40.553Z,83.84
2018-09-20T21:49:07.720Z,84.46
2018-09-20T21:51:34.898Z,83.82
2018-09-20T21:54:02.719Z,83.78
2018-09-20T21:56:29.908Z,84.46
2018-09-20T21:58:57.563Z,86.77
2018-09-20T22:01:24.790Z,88.03
2018-09-20T22:03:52.700Z,86.97
2018-09-20T22:06:19.939Z,85.47
2018-09-20T22:08:47.141Z,85.05
2018-09-20T22:11:14.326Z,85.06
2018-09-20T22:13:41.562Z,85.80
2018-09-20T22:16:08.861Z,87.40
2018-09-20T22:18:36.128Z,86.70
2018-09-20T22:21:03.821Z,85.78
2018-09-20T22:23:32.033Z,85.94
2018-09-20T22:25:59.257Z,85.71
2018-09-20T22:28:26.465Z,87.38
2018-09-20T22:30:54.293Z,87.31
2018-09-20T22:33:21.673Z,87.19
2018-09-20T22:35:48.960Z,88.37
2018-09-20T22:38:16.148Z,87.93
2018-09-20T22:40:43.401Z,86.88
2018-09-20T22:43:10.622Z,86.62
2018-09-20T22:45:37.790Z,86.93
2018-09-20T22:48:05.013Z,85.87
2018-09-20T22:50:32.217Z,86.80
2018-09-20T22:52:59.388Z,86.47
2018-09-20T22:55:26.590Z,86.00
2018-09-20T22:57:53.850Z,85.87
2018-09-20T23:00:22.970Z,85.68
2018-09-20T23:02:50.830Z,87.26
2018-09-20T23:05:18.095Z,86.65
2018-09-20T23:07:45.326Z,86.53
2018-09-20T23:10:12.561Z,86.11
2018-09-20T23:12:39.803Z,87.22
2018-09-20T23:15:07.069Z,87.63
2018-09-20T23:17:34.240Z,87.27
2018-09-20T23:20:01.598Z,86.58
2018-09-20T23:22:28.809Z,86.49
2018-09-20T23:24:56.033Z,86.60
2018-09-20T23:27:23.300Z,86.02
2018-09-20T23:29:50.554Z,86.29
2018-09-20T23:32:17.787Z,85.58
2018-09-20T23:34:45.000Z,85.51
2018-09-20T23:37:12.147Z,85.09
2018-09-20T23:39:39.379Z,84.67
2018-09-20T23:42:06.601Z,85.07
2018-09-20T23:44:33.826Z,85.59
2018-09-20T23:47:01.012Z,86.95
2018-09-20T23:49:28.236Z,86.50
2018-09-20T23:51:55.444Z,86.34
2018-09-20T23:54:22.679Z,85.38
2018-09-20T23:56:49.984Z,86.04
2018-09-20T23:59:17.265Z,86.98
